sensor_id;sensor_type;location;lat;lon;timestamp;P1;durP1;ratioP1;P2;durP2;ratioP2
14883;SDS011;7534;50.762;7.000;2023-08-31T00:00:42;67.80;;;39.30;;
14883;SDS011;7534;50.762;7.000;2023-08-31T00:03:08;27.27;;;23.45;;
14883;SDS011;7534;50.762;7.000;2023-08-31T00:05:40;123.85;;;56.95;;
14883;SDS011;7534;50.762;7.000;2023-08-31T00:08:08;180.68;;;72.32;;
14883;SDS011;7534;50.762;7.000;2023-08-31T00:10:35;176.60;;;71.00;;
14883;SDS011;7534;50.762;7.000;2023-08-31T00:13:01;126.70;;;57.40;;
14883;SDS011;7534;50.762;7.000;2023-08-31T00:15:28;170.07;;;69.50;;
14883;SDS011;7534;50.762;7.000;2023-08-31T00:17:54;458.90;;;139.32;;
14883;SDS011;7534;50.762;7.000;2023-08-31T00:20:20;471.92;;;140.60;;
14883;SDS011;7534;50.762;7.000;2023-08-31T00:22:46;337.73;;;108.38;;
14883;SDS011;7534;50.762;7.000;2023-08-31T00:25:13;411.77;;;129.73;;
14883;SDS011;7534;50.762;7.000;2023-08-31T00:27:39;341.30;;;113.93;;
14883;SDS011;7534;50.762;7.000;2023-08-31T00:30:06;685.60;;;187.82;;
14883;SDS011;7534;50.762;7.000;2023-08-31T00:32:36;846.25;;;221.30;;
14883;SDS011;7534;50.762;7.000;2023-08-31T00:35:02;159.00;;;63.83;;
14883;SDS011;7534;50.762;7.000;2023-08-31T00:37:28;442.77;;;135.55;;
14883;SDS011;7534;50.762;7.000;2023-08-31T00:39:54;774.27;;;205.73;;
14883;SDS011;7534;50.762;7.000;2023-08-31T00:42:20;325.43;;;108.20;;
14883;SDS011;7534;50.762;7.000;2023-08-31T00:44:46;372.08;;;117.57;;
14883;SDS011;7534;50.762;7.000;2023-08-31T00:47:13;525.00;;;151.37;;
14883;SDS011;7534;50.762;7.000;2023-08-31T00:49:40;753.58;;;201.82;;
14883;SDS011;7534;50.762;7.000;2023-08-31T00:52:06;603.22;;;169.93;;
14883;SDS011;7534;50.762;7.000;2023-08-31T00:54:32;687.65;;;187.93;;
14883;SDS011;7534;50.762;7.000;2023-08-31T00:56:59;1100.97;;;267.33;;
14883;SDS011;7534;50.762;7.000;2023-08-31T00:59:28;776.63;;;207.18;;
14883;SDS011;7534;50.762;7.000;2023-08-31T01:02:03;232.82;;;84.75;;
14883;SDS011;7534;50.762;7.000;2023-08-31T01:07:34;397.50;;;125.10;;
14883;SDS011;7534;50.762;7.000;2023-08-31T01:13:19;1105.28;;;269.73;;
14883;SDS011;7534;50.762;7.000;2023-08-31T01:15:54;691.50;;;188.82;;
14883;SDS011;7534;50.762;7.000;2023-08-31T01:18:28;556.30;;;160.82;;
14883;SDS011;7534;50.762;7.000;2023-08-31T01:21:06;647.17;;;178.77;;
14883;SDS011;7534;50.762;7.000;2023-08-31T01:23:56;651.67;;;179.70;;
14883;SDS011;7534;50.762;7.000;2023-08-31T01:26:23;747.28;;;198.90;;
14883;SDS011;7534;50.762;7.000;2023-08-31T01:28:50;711.47;;;191.07;;
14883;SDS011;7534;50.762;7.000;2023-08-31T01:31:17;478.38;;;143.20;;
14883;SDS011;7534;50.762;7.000;2023-08-31T01:33:43;800.92;;;211.23;;
14883;SDS011;7534;50.762;7.000;2023-08-31T01:36:28;504.50;;;151.43;;
14883;SDS011;7534;50.762;7.000;2023-08-31T01:39:02;406.55;;;127.85;;
14883;SDS011;7534;50.762;7.000;2023-08-31T01:41:51;338.10;;;107.80;;
14883;SDS011;7534;50.762;7.000;2023-08-31T01:44:23;858.23;;;224.23;;
14883;SDS011;7534;50.762;7.000;2023-08-31T01:46:53;439.38;;;135.98;;
14883;SDS011;7534;50.762;7.000;2023-08-31T01:49:28;699.70;;;190.90;;
14883;SDS011;7534;50.762;7.000;2023-08-31T01:51:53;904.92;;;233.40;;
14883;SDS011;7534;50.762;7.000;2023-08-31T01:54:19;1053.70;;;262.48;;
14883;SDS011;7534;50.762;7.000;2023-08-31T01:56:45;917.87;;;233.93;;
14883;SDS011;7534;50.762;7.000;2023-08-31T01:59:10;954.00;;;243.85;;
14883;SDS011;7534;50.762;7.000;2023-08-31T02:01:36;926.28;;;237.68;;
14883;SDS011;7534;50.762;7.000;2023-08-31T02:04:02;986.30;;;250.90;;
14883;SDS011;7534;50.762;7.000;2023-08-31T02:06:27;878.70;;;225.57;;
14883;SDS011;7534;50.762;7.000;2023-08-31T02:08:53;1137.00;;;274.60;;
14883;SDS011;7534;50.762;7.000;2023-08-31T02:11:19;733.57;;;195.60;;
14883;SDS011;7534;50.762;7.000;2023-08-31T02:13:44;1037.05;;;256.75;;
14883;SDS011;7534;50.762;7.000;2023-08-31T02:16:10;517.67;;;150.97;;
14883;SDS011;7534;50.762;7.000;2023-08-31T02:18:36;419.77;;;116.03;;
14883;SDS011;7534;50.762;7.000;2023-08-31T02:21:01;176.88;;;70.72;;
14883;SDS011;7534;50.762;7.000;2023-08-31T02:23:29;514.97;;;151.10;;
14883;SDS011;7534;50.762;7.000;2023-08-31T02:25:54;466.73;;;140.05;;
14883;SDS011;7534;50.762;7.000;2023-08-31T02:28:20;759.13;;;202.68;;
14883;SDS011;7534;50.762;7.000;2023-08-31T02:30:46;782.55;;;209.90;;
14883;SDS011;7534;50.762;7.000;2023-08-31T02:33:27;458.35;;;138.70;;
14883;SDS011;7534;50.762;7.000;2023-08-31T02:35:56;352.03;;;116.20;;
14883;SDS011;7534;50.762;7.000;2023-08-31T02:38:22;62.58;;;38.28;;
14883;SDS011;7534;50.762;7.000;2023-08-31T02:40:48;253.98;;;91.25;;
14883;SDS011;7534;50.762;7.000;2023-08-31T02:43:15;140.07;;;57.28;;
14883;SDS011;7534;50.762;7.000;2023-08-31T02:45:40;540.47;;;156.75;;
14883;SDS011;7534;50.762;7.000;2023-08-31T02:48:06;797.70;;;210.60;;
14883;SDS011;7534;50.762;7.000;2023-08-31T02:50:35;1164.68;;;285.15;;
14883;SDS011;7534;50.762;7.000;2023-08-31T02:53:02;850.65;;;222.98;;
14883;SDS011;7534;50.762;7.000;2023-08-31T02:55:27;850.10;;;223.48;;
14883;SDS011;7534;50.762;7.000;2023-08-31T02:57:53;402.53;;;122.57;;
14883;SDS011;7534;50.762;7.000;2023-08-31T03:00:19;168.27;;;70.50;;
14883;SDS011;7534;50.762;7.000;2023-08-31T03:02:48;4.43;;;3.30;;
14883;SDS011;7534;50.762;7.000;2023-08-31T03:05:17;4.53;;;3.40;;
14883;SDS011;7534;50.762;7.000;2023-08-31T03:07:43;5.07;;;3.20;;
14883;SDS011;7534;50.762;7.000;2023-08-31T03:10:09;4.27;;;3.33;;
14883;SDS011;7534;50.762;7.000;2023-08-31T03:12:35;4.43;;;3.27;;
14883;SDS011;7534;50.762;7.000;2023-08-31T03:15:01;5.60;;;3.40;;
14883;SDS011;7534;50.762;7.000;2023-08-31T03:17:28;5.70;;;3.60;;
14883;SDS011;7534;50.762;7.000;2023-08-31T03:19:53;3.60;;;3.30;;
14883;SDS011;7534;50.762;7.000;2023-08-31T03:22:19;8.67;;;3.90;;
14883;SDS011;7534;50.762;7.000;2023-08-31T03:24:45;4.63;;;3.73;;
14883;SDS011;7534;50.762;7.000;2023-08-31T03:27:10;4.33;;;3.93;;
14883;SDS011;7534;50.762;7.000;2023-08-31T03:29:36;4.43;;;3.80;;
14883;SDS011;7534;50.762;7.000;2023-08-31T03:32:02;6.57;;;3.87;;
14883;SDS011;7534;50.762;7.000;2023-08-31T03:34:28;5.50;;;4.57;;
14883;SDS011;7534;50.762;7.000;2023-08-31T03:36:55;8.20;;;4.47;;
14883;SDS011;7534;50.762;7.000;2023-08-31T03:39:22;4.60;;;4.03;;
14883;SDS011;7534;50.762;7.000;2023-08-31T03:41:49;9.40;;;4.47;;
14883;SDS011;7534;50.762;7.000;2023-08-31T03:44:15;4.60;;;4.20;;
14883;SDS011;7534;50.762;7.000;2023-08-31T03:46:40;6.70;;;4.90;;
14883;SDS011;7534;50.762;7.000;2023-08-31T03:49:07;5.73;;;4.60;;
14883;SDS011;7534;50.762;7.000;2023-08-31T03:51:33;5.83;;;4.40;;
14883;SDS011;7534;50.762;7.000;2023-08-31T03:53:58;5.00;;;4.30;;
14883;SDS011;7534;50.762;7.000;2023-08-31T03:56:24;5.00;;;4.17;;
14883;SDS011;7534;50.762;7.000;2023-08-31T03:58:50;5.10;;;4.30;;
14883;SDS011;7534;50.762;7.000;2023-08-31T04:01:16;5.67;;;4.27;;
14883;SDS011;7534;50.762;7.000;2023-08-31T04:03:42;4.50;;;4.07;;
14883;SDS011;7534;50.762;7.000;2023-08-31T04:06:08;4.30;;;3.63;;
14883;SDS011;7534;50.762;7.000;2023-08-31T04:08:34;4.53;;;3.90;;
14883;SDS011;7534;50.762;7.000;2023-08-31T04:11:00;4.33;;;3.93;;
14883;SDS011;7534;50.762;7.000;2023-08-31T04:13:25;6.53;;;3.80;;
14883;SDS011;7534;50.762;7.000;2023-08-31T04:15:54;4.00;;;3.60;;
14883;SDS011;7534;50.762;7.000;2023-08-31T04:18:20;5.20;;;3.77;;
14883;SDS011;7534;50.762;7.000;2023-08-31T04:20:50;4.10;;;3.37;;
14883;SDS011;7534;50.762;7.000;2023-08-31T04:23:19;5.80;;;3.90;;
14883;SDS011;7534;50.762;7.000;2023-08-31T04:25:46;4.80;;;3.73;;
14883;SDS011;7534;50.762;7.000;2023-08-31T04:28:12;5.03;;;3.67;;
14883;SDS011;7534;50.762;7.000;2023-08-31T04:30:39;6.27;;;3.77;;
14883;SDS011;7534;50.762;7.000;2023-08-31T04:33:06;4.70;;;3.70;;
14883;SDS011;7534;50.762;7.000;2023-08-31T04:35:32;4.30;;;3.50;;
14883;SDS011;7534;50.762;7.000;2023-08-31T04:37:58;5.93;;;3.40;;
14883;SDS011;7534;50.762;7.000;2023-08-31T04:40:24;4.20;;;3.73;;
14883;SDS011;7534;50.762;7.000;2023-08-31T04:42:50;4.90;;;3.50;;
14883;SDS011;7534;50.762;7.000;2023-08-31T04:45:16;5.23;;;3.73;;
14883;SDS011;7534;50.762;7.000;2023-08-31T04:47:42;4.20;;;3.20;;
14883;SDS011;7534;50.762;7.000;2023-08-31T04:50:08;5.03;;;3.30;;
14883;SDS011;7534;50.762;7.000;2023-08-31T04:52:34;5.83;;;3.60;;
14883;SDS011;7534;50.762;7.000;2023-08-31T04:55:05;3.50;;;3.00;;
14883;SDS011;7534;50.762;7.000;2023-08-31T04:57:36;4.30;;;3.30;;
14883;SDS011;7534;50.762;7.000;2023-08-31T05:00:02;3.40;;;3.10;;
14883;SDS011;7534;50.762;7.000;2023-08-31T05:02:29;3.87;;;3.30;;
14883;SDS011;7534;50.762;7.000;2023-08-31T05:04:55;4.23;;;3.13;;
14883;SDS011;7534;50.762;7.000;2023-08-31T05:07:21;4.13;;;2.93;;
14883;SDS011;7534;50.762;7.000;2023-08-31T05:09:47;5.87;;;3.00;;
14883;SDS011;7534;50.762;7.000;2023-08-31T05:12:12;4.00;;;3.00;;
14883;SDS011;7534;50.762;7.000;2023-08-31T05:14:38;3.57;;;2.97;;
14883;SDS011;7534;50.762;7.000;2023-08-31T05:17:04;4.80;;;2.90;;
14883;SDS011;7534;50.762;7.000;2023-08-31T05:19:31;4.23;;;3.10;;
14883;SDS011;7534;50.762;7.000;2023-08-31T05:21:57;4.37;;;3.20;;
14883;SDS011;7534;50.762;7.000;2023-08-31T05:24:23;3.40;;;2.70;;
14883;SDS011;7534;50.762;7.000;2023-08-31T05:26:49;5.10;;;2.70;;
14883;SDS011;7534;50.762;7.000;2023-08-31T05:29:15;2.80;;;2.50;;
14883;SDS011;7534;50.762;7.000;2023-08-31T05:31:41;3.37;;;2.80;;
14883;SDS011;7534;50.762;7.000;2023-08-31T05:34:09;3.67;;;2.60;;
14883;SDS011;7534;50.762;7.000;2023-08-31T05:36:35;4.73;;;2.73;;
14883;SDS011;7534;50.762;7.000;2023-08-31T05:39:02;4.63;;;2.97;;
14883;SDS011;7534;50.762;7.000;2023-08-31T05:41:28;6.17;;;2.60;;
14883;SDS011;7534;50.762;7.000;2023-08-31T05:43:53;2.80;;;2.47;;
14883;SDS011;7534;50.762;7.000;2023-08-31T05:46:19;3.97;;;2.50;;
14883;SDS011;7534;50.762;7.000;2023-08-31T05:48:45;3.67;;;2.57;;
14883;SDS011;7534;50.762;7.000;2023-08-31T05:51:10;2.93;;;2.40;;
14883;SDS011;7534;50.762;7.000;2023-08-31T05:53:36;3.33;;;2.40;;
14883;SDS011;7534;50.762;7.000;2023-08-31T05:56:02;6.03;;;2.40;;
14883;SDS011;7534;50.762;7.000;2023-08-31T05:58:30;3.73;;;2.00;;
14883;SDS011;7534;50.762;7.000;2023-08-31T06:01:00;3.73;;;2.10;;
14883;SDS011;7534;50.762;7.000;2023-08-31T06:03:27;3.90;;;2.17;;
14883;SDS011;7534;50.762;7.000;2023-08-31T06:05:55;6.57;;;2.50;;
14883;SDS011;7534;50.762;7.000;2023-08-31T06:08:23;3.23;;;2.00;;
14883;SDS011;7534;50.762;7.000;2023-08-31T06:10:50;2.37;;;2.17;;
14883;SDS011;7534;50.762;7.000;2023-08-31T06:13:16;3.40;;;1.90;;
14883;SDS011;7534;50.762;7.000;2023-08-31T06:15:42;3.03;;;2.03;;
14883;SDS011;7534;50.762;7.000;2023-08-31T06:18:09;3.93;;;1.77;;
14883;SDS011;7534;50.762;7.000;2023-08-31T06:20:35;4.07;;;1.80;;
14883;SDS011;7534;50.762;7.000;2023-08-31T06:23:01;4.00;;;1.80;;
14883;SDS011;7534;50.762;7.000;2023-08-31T06:25:27;5.27;;;2.13;;
14883;SDS011;7534;50.762;7.000;2023-08-31T06:27:53;2.80;;;1.80;;
14883;SDS011;7534;50.762;7.000;2023-08-31T06:30:19;2.97;;;2.03;;
14883;SDS011;7534;50.762;7.000;2023-08-31T06:32:46;2.53;;;1.90;;
14883;SDS011;7534;50.762;7.000;2023-08-31T06:35:13;5.63;;;2.67;;
14883;SDS011;7534;50.762;7.000;2023-08-31T06:37:42;2.23;;;1.80;;
14883;SDS011;7534;50.762;7.000;2023-08-31T06:40:09;1.65;;;1.40;;
14883;SDS011;7534;50.762;7.000;2023-08-31T06:42:36;2.40;;;1.58;;
14883;SDS011;7534;50.762;7.000;2023-08-31T06:45:05;2.42;;;1.63;;
14883;SDS011;7534;50.762;7.000;2023-08-31T06:47:33;5.63;;;1.80;;
14883;SDS011;7534;50.762;7.000;2023-08-31T06:49:59;2.63;;;1.70;;
14883;SDS011;7534;50.762;7.000;2023-08-31T06:52:25;2.10;;;1.88;;
14883;SDS011;7534;50.762;7.000;2023-08-31T06:54:52;4.68;;;2.00;;
14883;SDS011;7534;50.762;7.000;2023-08-31T06:57:25;3.78;;;2.10;;
14883;SDS011;7534;50.762;7.000;2023-08-31T06:59:52;2.53;;;1.90;;
14883;SDS011;7534;50.762;7.000;2023-08-31T07:02:19;3.33;;;1.90;;
14883;SDS011;7534;50.762;7.000;2023-08-31T07:04:47;2.10;;;1.90;;
14883;SDS011;7534;50.762;7.000;2023-08-31T07:07:13;3.28;;;2.00;;
14883;SDS011;7534;50.762;7.000;2023-08-31T07:09:42;2.53;;;1.70;;
14883;SDS011;7534;50.762;7.000;2023-08-31T07:12:09;2.25;;;1.60;;
14883;SDS011;7534;50.762;7.000;2023-08-31T07:14:35;3.83;;;1.90;;
14883;SDS011;7534;50.762;7.000;2023-08-31T07:17:01;2.72;;;1.75;;
14883;SDS011;7534;50.762;7.000;2023-08-31T07:19:27;3.83;;;2.08;;
14883;SDS011;7534;50.762;7.000;2023-08-31T07:21:53;4.77;;;4.37;;
14883;SDS011;7534;50.762;7.000;2023-08-31T07:24:22;6.97;;;6.40;;
14883;SDS011;7534;50.762;7.000;2023-08-31T07:26:49;4.20;;;2.15;;
14883;SDS011;7534;50.762;7.000;2023-08-31T07:29:15;3.00;;;2.03;;
14883;SDS011;7534;50.762;7.000;2023-08-31T07:31:41;3.72;;;1.95;;
14883;SDS011;7534;50.762;7.000;2023-08-31T07:34:07;2.45;;;1.77;;
14883;SDS011;7534;50.762;7.000;2023-08-31T07:36:32;4.93;;;1.90;;
14883;SDS011;7534;50.762;7.000;2023-08-31T07:38:59;4.30;;;1.73;;
14883;SDS011;7534;50.762;7.000;2023-08-31T07:41:24;2.63;;;1.60;;
14883;SDS011;7534;50.762;7.000;2023-08-31T07:43:50;2.95;;;1.50;;
14883;SDS011;7534;50.762;7.000;2023-08-31T07:46:16;2.15;;;1.55;;
14883;SDS011;7534;50.762;7.000;2023-08-31T07:48:42;2.38;;;1.48;;
14883;SDS011;7534;50.762;7.000;2023-08-31T07:51:08;2.28;;;1.67;;
14883;SDS011;7534;50.762;7.000;2023-08-31T07:53:34;1.63;;;1.50;;
14883;SDS011;7534;50.762;7.000;2023-08-31T07:55:59;3.58;;;1.55;;
14883;SDS011;7534;50.762;7.000;2023-08-31T07:58:25;6.32;;;1.60;;
14883;SDS011;7534;50.762;7.000;2023-08-31T08:00:57;2.75;;;1.45;;
14883;SDS011;7534;50.762;7.000;2023-08-31T08:03:23;1.90;;;1.70;;
14883;SDS011;7534;50.762;7.000;2023-08-31T08:05:49;2.20;;;1.40;;
14883;SDS011;7534;50.762;7.000;2023-08-31T08:08:14;1.67;;;1.50;;
14883;SDS011;7534;50.762;7.000;2023-08-31T08:10:40;2.50;;;1.55;;
14883;SDS011;7534;50.762;7.000;2023-08-31T08:13:07;2.63;;;1.60;;
14883;SDS011;7534;50.762;7.000;2023-08-31T08:15:34;2.88;;;1.48;;
14883;SDS011;7534;50.762;7.000;2023-08-31T08:17:59;2.38;;;1.50;;
14883;SDS011;7534;50.762;7.000;2023-08-31T08:20:27;1.67;;;1.40;;
14883;SDS011;7534;50.762;7.000;2023-08-31T08:22:56;2.17;;;1.50;;
14883;SDS011;7534;50.762;7.000;2023-08-31T08:25:23;2.45;;;1.60;;
14883;SDS011;7534;50.762;7.000;2023-08-31T08:27:48;2.92;;;1.60;;
14883;SDS011;7534;50.762;7.000;2023-08-31T08:30:15;1.80;;;1.55;;
14883;SDS011;7534;50.762;7.000;2023-08-31T08:32:41;1.80;;;1.33;;
14883;SDS011;7534;50.762;7.000;2023-08-31T08:35:08;2.42;;;1.40;;
14883;SDS011;7534;50.762;7.000;2023-08-31T08:37:34;2.03;;;1.40;;
14883;SDS011;7534;50.762;7.000;2023-08-31T08:40:00;4.43;;;3.50;;
14883;SDS011;7534;50.762;7.000;2023-08-31T08:42:27;2.17;;;1.83;;
14883;SDS011;7534;50.762;7.000;2023-08-31T08:44:57;7.30;;;6.80;;
14883;SDS011;7534;50.762;7.000;2023-08-31T08:47:23;2.75;;;1.60;;
14883;SDS011;7534;50.762;7.000;2023-08-31T08:49:54;2.13;;;1.40;;
14883;SDS011;7534;50.762;7.000;2023-08-31T08:52:23;1.67;;;1.45;;
14883;SDS011;7534;50.762;7.000;2023-08-31T08:54:49;6.93;;;5.03;;
14883;SDS011;7534;50.762;7.000;2023-08-31T08:57:15;16.98;;;15.32;;
14883;SDS011;7534;50.762;7.000;2023-08-31T08:59:41;18.98;;;17.23;;
14883;SDS011;7534;50.762;7.000;2023-08-31T09:02:08;2.67;;;1.47;;
14883;SDS011;7534;50.762;7.000;2023-08-31T09:04:36;2.05;;;1.33;;
14883;SDS011;7534;50.762;7.000;2023-08-31T09:07:02;2.85;;;1.60;;
14883;SDS011;7534;50.762;7.000;2023-08-31T09:09:28;2.67;;;1.58;;
14883;SDS011;7534;50.762;7.000;2023-08-31T09:11:55;2.15;;;1.30;;
14883;SDS011;7534;50.762;7.000;2023-08-31T09:14:21;3.20;;;1.67;;
14883;SDS011;7534;50.762;7.000;2023-08-31T09:16:48;1.70;;;1.60;;
14883;SDS011;7534;50.762;7.000;2023-08-31T09:19:19;4.50;;;2.00;;
14883;SDS011;7534;50.762;7.000;2023-08-31T09:21:49;2.40;;;1.42;;
14883;SDS011;7534;50.762;7.000;2023-08-31T09:24:17;3.58;;;1.90;;
14883;SDS011;7534;50.762;7.000;2023-08-31T09:26:47;3.65;;;1.65;;
14883;SDS011;7534;50.762;7.000;2023-08-31T09:29:18;3.08;;;1.50;;
14883;SDS011;7534;50.762;7.000;2023-08-31T09:31:44;3.08;;;1.50;;
14883;SDS011;7534;50.762;7.000;2023-08-31T09:34:12;2.65;;;1.60;;
14883;SDS011;7534;50.762;7.000;2023-08-31T09:36:42;2.80;;;1.52;;
14883;SDS011;7534;50.762;7.000;2023-08-31T09:39:09;2.40;;;1.45;;
14883;SDS011;7534;50.762;7.000;2023-08-31T09:41:51;2.20;;;1.38;;
14883;SDS011;7534;50.762;7.000;2023-08-31T09:44:20;3.58;;;1.60;;
14883;SDS011;7534;50.762;7.000;2023-08-31T09:46:47;2.67;;;1.38;;
14883;SDS011;7534;50.762;7.000;2023-08-31T09:49:13;3.05;;;1.50;;
14883;SDS011;7534;50.762;7.000;2023-08-31T09:51:41;1.80;;;1.30;;
14883;SDS011;7534;50.762;7.000;2023-08-31T09:54:15;2.45;;;1.50;;
14883;SDS011;7534;50.762;7.000;2023-08-31T09:56:47;3.83;;;1.67;;
14883;SDS011;7534;50.762;7.000;2023-08-31T09:59:13;2.03;;;1.50;;
14883;SDS011;7534;50.762;7.000;2023-08-31T10:01:41;2.38;;;1.40;;
14883;SDS011;7534;50.762;7.000;2023-08-31T10:04:11;1.30;;;1.20;;
14883;SDS011;7534;50.762;7.000;2023-08-31T10:06:40;2.75;;;1.52;;
14883;SDS011;7534;50.762;7.000;2023-08-31T10:09:07;2.38;;;1.58;;
14883;SDS011;7534;50.762;7.000;2023-08-31T10:11:40;2.28;;;1.45;;
14883;SDS011;7534;50.762;7.000;2023-08-31T10:14:10;3.40;;;1.50;;
14883;SDS011;7534;50.762;7.000;2023-08-31T10:16:39;2.42;;;1.60;;
14883;SDS011;7534;50.762;7.000;2023-08-31T10:19:06;2.78;;;1.50;;
14883;SDS011;7534;50.762;7.000;2023-08-31T10:21:31;3.20;;;1.73;;
14883;SDS011;7534;50.762;7.000;2023-08-31T10:23:58;2.92;;;1.52;;
14883;SDS011;7534;50.762;7.000;2023-08-31T10:26:26;3.92;;;1.70;;
14883;SDS011;7534;50.762;7.000;2023-08-31T10:28:57;3.08;;;1.90;;
14883;SDS011;7534;50.762;7.000;2023-08-31T10:31:27;3.60;;;1.63;;
14883;SDS011;7534;50.762;7.000;2023-08-31T10:33:59;1.50;;;1.40;;
14883;SDS011;7534;50.762;7.000;2023-08-31T10:36:37;2.47;;;1.60;;
14883;SDS011;7534;50.762;7.000;2023-08-31T10:39:11;2.45;;;1.40;;
14883;SDS011;7534;50.762;7.000;2023-08-31T10:41:44;2.40;;;1.77;;
14883;SDS011;7534;50.762;7.000;2023-08-31T10:44:22;3.30;;;1.70;;
14883;SDS011;7534;50.762;7.000;2023-08-31T10:46:55;3.30;;;1.50;;
14883;SDS011;7534;50.762;7.000;2023-08-31T10:49:24;2.20;;;1.60;;
14883;SDS011;7534;50.762;7.000;2023-08-31T10:51:57;3.03;;;1.63;;
14883;SDS011;7534;50.762;7.000;2023-08-31T10:54:45;1.70;;;1.30;;
14883;SDS011;7534;50.762;7.000;2023-08-31T10:57:11;2.47;;;1.70;;
14883;SDS011;7534;50.762;7.000;2023-08-31T10:59:43;3.15;;;1.50;;
14883;SDS011;7534;50.762;7.000;2023-08-31T11:05:11;3.53;;;1.98;;
14883;SDS011;7534;50.762;7.000;2023-08-31T11:07:43;3.20;;;1.90;;
14883;SDS011;7534;50.762;7.000;2023-08-31T11:10:13;2.65;;;1.80;;
14883;SDS011;7534;50.762;7.000;2023-08-31T11:12:46;2.92;;;1.70;;
14883;SDS011;7534;50.762;7.000;2023-08-31T11:15:18;2.88;;;1.55;;
14883;SDS011;7534;50.762;7.000;2023-08-31T11:17:50;4.03;;;1.80;;
14883;SDS011;7534;50.762;7.000;2023-08-31T11:20:18;3.63;;;1.77;;
14883;SDS011;7534;50.762;7.000;2023-08-31T11:22:46;3.55;;;1.60;;
14883;SDS011;7534;50.762;7.000;2023-08-31T11:25:15;2.00;;;1.63;;
14883;SDS011;7534;50.762;7.000;2023-08-31T11:27:42;4.15;;;1.85;;
14883;SDS011;7534;50.762;7.000;2023-08-31T11:30:29;2.58;;;1.65;;
14883;SDS011;7534;50.762;7.000;2023-08-31T11:33:05;3.28;;;1.77;;
14883;SDS011;7534;50.762;7.000;2023-08-31T11:35:34;3.83;;;1.60;;
14883;SDS011;7534;50.762;7.000;2023-08-31T11:38:03;1.80;;;1.65;;
14883;SDS011;7534;50.762;7.000;2023-08-31T11:40:29;2.88;;;1.85;;
14883;SDS011;7534;50.762;7.000;2023-08-31T11:42:56;3.65;;;1.70;;
14883;SDS011;7534;50.762;7.000;2023-08-31T11:45:25;4.15;;;1.70;;
14883;SDS011;7534;50.762;7.000;2023-08-31T11:47:53;2.55;;;1.90;;
14883;SDS011;7534;50.762;7.000;2023-08-31T11:50:20;2.20;;;1.80;;
14883;SDS011;7534;50.762;7.000;2023-08-31T11:52:49;2.95;;;1.80;;
14883;SDS011;7534;50.762;7.000;2023-08-31T11:55:16;2.70;;;1.85;;
14883;SDS011;7534;50.762;7.000;2023-08-31T11:57:52;2.60;;;2.00;;
14883;SDS011;7534;50.762;7.000;2023-08-31T12:00:19;5.00;;;2.45;;
14883;SDS011;7534;50.762;7.000;2023-08-31T12:02:59;2.53;;;1.80;;
14883;SDS011;7534;50.762;7.000;2023-08-31T12:05:26;3.78;;;2.38;;
14883;SDS011;7534;50.762;7.000;2023-08-31T12:07:53;3.83;;;2.20;;
14883;SDS011;7534;50.762;7.000;2023-08-31T12:10:20;3.53;;;2.58;;
14883;SDS011;7534;50.762;7.000;2023-08-31T12:12:45;4.28;;;2.47;;
14883;SDS011;7534;50.762;7.000;2023-08-31T12:15:11;3.88;;;2.53;;
14883;SDS011;7534;50.762;7.000;2023-08-31T12:17:37;2.53;;;1.90;;
14883;SDS011;7534;50.762;7.000;2023-08-31T12:20:08;2.35;;;2.15;;
14883;SDS011;7534;50.762;7.000;2023-08-31T12:22:35;3.92;;;2.00;;
14883;SDS011;7534;50.762;7.000;2023-08-31T12:25:00;2.33;;;1.98;;
14883;SDS011;7534;50.762;7.000;2023-08-31T12:27:26;3.65;;;2.03;;
14883;SDS011;7534;50.762;7.000;2023-08-31T12:29:52;2.92;;;2.13;;
14883;SDS011;7534;50.762;7.000;2023-08-31T12:32:18;3.08;;;2.08;;
14883;SDS011;7534;50.762;7.000;2023-08-31T12:34:44;3.97;;;2.13;;
14883;SDS011;7534;50.762;7.000;2023-08-31T12:37:09;4.93;;;2.47;;
14883;SDS011;7534;50.762;7.000;2023-08-31T12:39:35;2.65;;;2.00;;
14883;SDS011;7534;50.762;7.000;2023-08-31T12:42:02;2.50;;;2.10;;
14883;SDS011;7534;50.762;7.000;2023-08-31T12:44:29;4.55;;;2.00;;
14883;SDS011;7534;50.762;7.000;2023-08-31T12:46:56;4.05;;;2.67;;
14883;SDS011;7534;50.762;7.000;2023-08-31T12:49:21;3.35;;;2.60;;
14883;SDS011;7534;50.762;7.000;2023-08-31T12:51:48;5.63;;;4.00;;
14883;SDS011;7534;50.762;7.000;2023-08-31T12:54:15;3.85;;;2.20;;
14883;SDS011;7534;50.762;7.000;2023-08-31T12:56:41;3.15;;;2.17;;
14883;SDS011;7534;50.762;7.000;2023-08-31T12:59:07;4.50;;;2.38;;
14883;SDS011;7534;50.762;7.000;2023-08-31T13:01:33;2.60;;;2.15;;
14883;SDS011;7534;50.762;7.000;2023-08-31T13:03:59;3.95;;;2.30;;
14883;SDS011;7534;50.762;7.000;2023-08-31T13:06:24;4.22;;;2.47;;
14883;SDS011;7534;50.762;7.000;2023-08-31T13:08:51;3.83;;;2.33;;
14883;SDS011;7534;50.762;7.000;2023-08-31T13:11:17;5.05;;;2.20;;
14883;SDS011;7534;50.762;7.000;2023-08-31T13:13:48;3.45;;;2.20;;
14883;SDS011;7534;50.762;7.000;2023-08-31T13:16:16;7.13;;;4.53;;
14883;SDS011;7534;50.762;7.000;2023-08-31T13:18:42;3.58;;;2.40;;
14883;SDS011;7534;50.762;7.000;2023-08-31T13:21:07;3.95;;;2.55;;
14883;SDS011;7534;50.762;7.000;2023-08-31T13:23:33;4.65;;;2.60;;
14883;SDS011;7534;50.762;7.000;2023-08-31T13:25:59;5.32;;;2.40;;
14883;SDS011;7534;50.762;7.000;2023-08-31T13:28:25;4.25;;;2.47;;
14883;SDS011;7534;50.762;7.000;2023-08-31T13:30:55;5.60;;;5.18;;
14883;SDS011;7534;50.762;7.000;2023-08-31T13:33:22;15.63;;;14.15;;
14883;SDS011;7534;50.762;7.000;2023-08-31T13:35:49;5.22;;;2.58;;
14883;SDS011;7534;50.762;7.000;2023-08-31T13:38:15;4.43;;;2.50;;
14883;SDS011;7534;50.762;7.000;2023-08-31T13:40:41;6.55;;;5.95;;
14883;SDS011;7534;50.762;7.000;2023-08-31T13:43:06;6.05;;;2.55;;
14883;SDS011;7534;50.762;7.000;2023-08-31T13:45:32;5.10;;;2.30;;
14883;SDS011;7534;50.762;7.000;2023-08-31T13:47:58;2.80;;;2.45;;
14883;SDS011;7534;50.762;7.000;2023-08-31T13:50:25;15.93;;;14.52;;
14883;SDS011;7534;50.762;7.000;2023-08-31T13:52:52;32.75;;;26.45;;
14883;SDS011;7534;50.762;7.000;2023-08-31T13:55:18;66.53;;;37.70;;
14883;SDS011;7534;50.762;7.000;2023-08-31T13:57:43;99.95;;;46.58;;
14883;SDS011;7534;50.762;7.000;2023-08-31T14:00:09;64.50;;;35.97;;
14883;SDS011;7534;50.762;7.000;2023-08-31T14:02:37;95.45;;;47.60;;
14883;SDS011;7534;50.762;7.000;2023-08-31T14:05:03;5.28;;;2.92;;
14883;SDS011;7534;50.762;7.000;2023-08-31T14:07:33;5.63;;;2.63;;
14883;SDS011;7534;50.762;7.000;2023-08-31T14:09:59;4.53;;;2.53;;
14883;SDS011;7534;50.762;7.000;2023-08-31T14:12:25;3.88;;;2.33;;
14883;SDS011;7534;50.762;7.000;2023-08-31T14:14:51;2.67;;;2.33;;
14883;SDS011;7534;50.762;7.000;2023-08-31T14:17:18;4.63;;;2.92;;
14883;SDS011;7534;50.762;7.000;2023-08-31T14:19:44;2.53;;;2.30;;
14883;SDS011;7534;50.762;7.000;2023-08-31T14:22:10;5.35;;;2.50;;
14883;SDS011;7534;50.762;7.000;2023-08-31T14:24:36;4.60;;;2.38;;
14883;SDS011;7534;50.762;7.000;2023-08-31T14:27:02;3.38;;;2.40;;
14883;SDS011;7534;50.762;7.000;2023-08-31T14:29:29;3.65;;;2.35;;
14883;SDS011;7534;50.762;7.000;2023-08-31T14:31:54;4.10;;;2.33;;
14883;SDS011;7534;50.762;7.000;2023-08-31T14:34:21;2.97;;;2.20;;
14883;SDS011;7534;50.762;7.000;2023-08-31T14:36:47;3.22;;;1.90;;
14883;SDS011;7534;50.762;7.000;2023-08-31T14:39:13;2.95;;;2.20;;
14883;SDS011;7534;50.762;7.000;2023-08-31T14:41:40;3.15;;;1.98;;
14883;SDS011;7534;50.762;7.000;2023-08-31T14:44:06;2.13;;;1.90;;
14883;SDS011;7534;50.762;7.000;2023-08-31T14:46:32;2.75;;;1.80;;
14883;SDS011;7534;50.762;7.000;2023-08-31T14:48:58;2.85;;;1.65;;
14883;SDS011;7534;50.762;7.000;2023-08-31T14:51:23;4.95;;;2.00;;
14883;SDS011;7534;50.762;7.000;2023-08-31T14:53:49;3.10;;;1.80;;
14883;SDS011;7534;50.762;7.000;2023-08-31T14:56:15;2.28;;;1.67;;
14883;SDS011;7534;50.762;7.000;2023-08-31T14:58:41;2.65;;;1.80;;
14883;SDS011;7534;50.762;7.000;2023-08-31T15:01:07;2.13;;;1.90;;